sensor_id;sensor_type;location;lat;lon;timestamp;pressure;altitude;pressure_sealevel;temperature;humidity
54389;BME280;40975;50.390;8.640;2023-03-13T00:00:16;98327.28;;;8.34;100.00
54389;BME280;40975;50.390;8.640;2023-03-13T00:02:42;98325.78;;;8.31;100.00
54389;BME280;40975;50.390;8.640;2023-03-13T00:05:10;98324.94;;;8.31;100.00
54389;BME280;40975;50.390;8.640;2023-03-13T00:07:35;98324.56;;;8.25;100.00
54389;BME280;40975;50.390;8.640;2023-03-13T00:10:01;98321.78;;;8.27;100.00
54389;BME280;40975;50.390;8.640;2023-03-13T00:12:26;98312.84;;;8.28;100.00
54389;BME280;40975;50.390;8.640;2023-03-13T00:14:51;98307.03;;;8.24;100.00
54389;BME280;40975;50.390;8.640;2023-03-13T00:17:17;98302.06;;;8.21;100.00
54389;BME280;40975;50.390;8.640;2023-03-13T00:19:42;98302.56;;;8.25;100.00
54389;BME280;40975;50.390;8.640;2023-03-13T00:22:07;98300.25;;;8.22;100.00
54389;BME280;40975;50.390;8.640;2023-03-13T00:24:33;98295.34;;;8.27;100.00
54389;BME280;40975;50.390;8.640;2023-03-13T00:26:58;98290.50;;;8.22;100.00
54389;BME280;40975;50.390;8.640;2023-03-13T00:29:28;98284.53;;;8.20;100.00
54389;BME280;40975;50.390;8.640;2023-03-13T00:31:53;98279.56;;;8.17;100.00
54389;BME280;40975;50.390;8.640;2023-03-13T00:34:18;98279.84;;;8.14;100.00
54389;BME280;40975;50.390;8.640;2023-03-13T00:36:44;98284.31;;;8.14;100.00
54389;BME280;40975;50.390;8.640;2023-03-13T00:39:09;98273.88;;;8.12;100.00
54389;BME280;40975;50.390;8.640;2023-03-13T00:41:36;98276.53;;;8.12;100.00
54389;BME280;40975;50.390;8.640;2023-03-13T00:44:03;98266.25;;;8.09;100.00
54389;BME280;40975;50.390;8.640;2023-03-13T00:46:29;98261.66;;;8.11;100.00
54389;BME280;40975;50.390;8.640;2023-03-13T00:48:55;98259.00;;;8.11;100.00
54389;BME280;40975;50.390;8.640;2023-03-13T00:51:22;98252.06;;;8.10;100.00
54389;BME280;40975;50.390;8.640;2023-03-13T00:53:48;98251.78;;;8.13;100.00
54389;BME280;40975;50.390;8.640;2023-03-13T00:56:17;98244.41;;;8.25;100.00
54389;BME280;40975;50.390;8.640;2023-03-13T00:58:44;98245.78;;;8.29;100.00
54389;BME280;40975;50.390;8.640;2023-03-13T01:01:13;98240.66;;;8.28;100.00
54389;BME280;40975;50.390;8.640;2023-03-13T01:03:40;98233.84;;;8.25;100.00
54389;BME280;40975;50.390;8.640;2023-03-13T01:06:09;98233.84;;;8.25;100.00
54389;BME280;40975;50.390;8.640;2023-03-13T01:08:34;98236.94;;;8.20;100.00
54389;BME280;40975;50.390;8.640;2023-03-13T01:11:02;98233.50;;;8.20;100.00
54389;BME280;40975;50.390;8.640;2023-03-13T01:13:30;98225.41;;;8.21;100.00
54389;BME280;40975;50.390;8.640;2023-03-13T01:16:01;98226.75;;;8.25;100.00
54389;BME280;40975;50.390;8.640;2023-03-13T01:18:26;98223.44;;;8.23;100.00
54389;BME280;40975;50.390;8.640;2023-03-13T01:20:52;98211.19;;;8.22;100.00
54389;BME280;40975;50.390;8.640;2023-03-13T01:23:17;98209.75;;;8.28;100.00
54389;BME280;40975;50.390;8.640;2023-03-13T01:25:43;98202.88;;;8.35;100.00
54389;BME280;40975;50.390;8.640;2023-03-13T01:28:08;98190.31;;;8.37;100.00
54389;BME280;40975;50.390;8.640;2023-03-13T01:30:33;98190.31;;;8.37;100.00
54389;BME280;40975;50.390;8.640;2023-03-13T01:32:59;98181.19;;;8.50;100.00
54389;BME280;40975;50.390;8.640;2023-03-13T01:35:24;98181.00;;;8.51;100.00
54389;BME280;40975;50.390;8.640;2023-03-13T01:37:50;98178.25;;;8.53;100.00
54389;BME280;40975;50.390;8.640;2023-03-13T01:40:16;98169.94;;;8.48;100.00
54389;BME280;40975;50.390;8.640;2023-03-13T01:42:52;98166.28;;;8.49;100.00
54389;BME280;40975;50.390;8.640;2023-03-13T01:48:14;98154.97;;;8.38;100.00
54389;BME280;40975;50.390;8.640;2023-03-13T01:50:48;98149.00;;;8.36;100.00
54389;BME280;40975;50.390;8.640;2023-03-13T01:53:22;98149.84;;;8.37;100.00
54389;BME280;40975;50.390;8.640;2023-03-13T01:55:49;98137.91;;;8.33;100.00
54389;BME280;40975;50.390;8.640;2023-03-13T01:58:14;98133.31;;;8.35;100.00
54389;BME280;40975;50.390;8.640;2023-03-13T02:00:41;98128.88;;;8.44;100.00
54389;BME280;40975;50.390;8.640;2023-03-13T02:03:11;98131.22;;;8.47;100.00
54389;BME280;40975;50.390;8.640;2023-03-13T02:05:40;98118.72;;;8.57;100.00
54389;BME280;40975;50.390;8.640;2023-03-13T02:08:10;98122.88;;;8.60;100.00
54389;BME280;40975;50.390;8.640;2023-03-13T02:10:43;98117.59;;;8.60;100.00
54389;BME280;40975;50.390;8.640;2023-03-13T02:13:14;98114.81;;;8.61;100.00
54389;BME280;40975;50.390;8.640;2023-03-13T02:15:41;98115.91;;;8.59;100.00
54389;BME280;40975;50.390;8.640;2023-03-13T02:18:07;98113.63;;;8.55;100.00
54389;BME280;40975;50.390;8.640;2023-03-13T02:20:33;98112.69;;;8.47;100.00
54389;BME280;40975;50.390;8.640;2023-03-13T02:23:18;98111.31;;;8.34;100.00
54389;BME280;40975;50.390;8.640;2023-03-13T02:25:48;98100.50;;;8.19;100.00
54389;BME280;40975;50.390;8.640;2023-03-13T02:28:24;98097.50;;;8.14;100.00
54389;BME280;40975;50.390;8.640;2023-03-13T02:30:54;98093.97;;;8.05;100.00
54389;BME280;40975;50.390;8.640;2023-03-13T02:33:21;98089.63;;;7.96;100.00
54389;BME280;40975;50.390;8.640;2023-03-13T02:35:51;98088.94;;;7.94;100.00
54389;BME280;40975;50.390;8.640;2023-03-13T02:38:24;98087.22;;;7.85;100.00
54389;BME280;40975;50.390;8.640;2023-03-13T02:40:51;98084.41;;;7.78;100.00
54389;BME280;40975;50.390;8.640;2023-03-13T02:43:32;98079.72;;;7.72;100.00
54389;BME280;40975;50.390;8.640;2023-03-13T02:48:39;98071.72;;;7.63;100.00
54389;BME280;40975;50.390;8.640;2023-03-13T02:51:11;98064.94;;;7.61;100.00
54389;BME280;40975;50.390;8.640;2023-03-13T02:53:39;98053.88;;;7.57;100.00
54389;BME280;40975;50.390;8.640;2023-03-13T02:56:06;98048.59;;;7.57;100.00
54389;BME280;40975;50.390;8.640;2023-03-13T02:58:42;98052.34;;;7.55;100.00
54389;BME280;40975;50.390;8.640;2023-03-13T03:01:07;98046.72;;;7.50;100.00
54389;BME280;40975;50.390;8.640;2023-03-13T03:03:36;98051.31;;;7.47;100.00
54389;BME280;40975;50.390;8.640;2023-03-13T03:06:04;98041.59;;;7.48;100.00
54389;BME280;40975;50.390;8.640;2023-03-13T03:08:29;98037.13;;;7.49;100.00
54389;BME280;40975;50.390;8.640;2023-03-13T03:10:55;98017.97;;;7.46;100.00
54389;BME280;40975;50.390;8.640;2023-03-13T03:13:21;98013.38;;;7.49;100.00
54389;BME280;40975;50.390;8.640;2023-03-13T03:15:46;98017.00;;;7.47;100.00
54389;BME280;40975;50.390;8.640;2023-03-13T03:18:12;98016.00;;;7.49;100.00
54389;BME280;40975;50.390;8.640;2023-03-13T03:20:37;98014.72;;;7.53;100.00
54389;BME280;40975;50.390;8.640;2023-03-13T03:23:03;98015.53;;;7.53;100.00
54389;BME280;40975;50.390;8.640;2023-03-13T03:25:28;98016.34;;;7.54;100.00
54389;BME280;40975;50.390;8.640;2023-03-13T03:27:53;98007.91;;;7.50;100.00
54389;BME280;40975;50.390;8.640;2023-03-13T03:30:19;98001.16;;;7.47;100.00
54389;BME280;40975;50.390;8.640;2023-03-13T03:32:44;98000.16;;;7.49;100.00
54389;BME280;40975;50.390;8.640;2023-03-13T03:35:10;98003.78;;;7.47;100.00
54389;BME280;40975;50.390;8.640;2023-03-13T03:37:36;97999.66;;;7.45;100.00
54389;BME280;40975;50.390;8.640;2023-03-13T03:40:03;97998.81;;;7.44;100.00
54389;BME280;40975;50.390;8.640;2023-03-13T03:42:30;97991.91;;;7.43;100.00
54389;BME280;40975;50.390;8.640;2023-03-13T03:44:56;98000.63;;;7.44;100.00
54389;BME280;40975;50.390;8.640;2023-03-13T03:47:21;97994.00;;;7.40;100.00
54389;BME280;40975;50.390;8.640;2023-03-13T03:49:47;97984.41;;;7.39;100.00
54389;BME280;40975;50.390;8.640;2023-03-13T03:52:13;97991.50;;;7.38;100.00
54389;BME280;40975;50.390;8.640;2023-03-13T03:54:41;97981.13;;;7.37;100.00
54389;BME280;40975;50.390;8.640;2023-03-13T03:57:06;97989.56;;;7.40;100.00
54389;BME280;40975;50.390;8.640;2023-03-13T03:59:33;97985.56;;;7.36;100.00
54389;BME280;40975;50.390;8.640;2023-03-13T04:02:04;97980.78;;;7.40;100.00
54389;BME280;40975;50.390;8.640;2023-03-13T04:04:31;97975.38;;;7.41;100.00
54389;BME280;40975;50.390;8.640;2023-03-13T04:07:04;97971.22;;;7.39;100.00
54389;BME280;40975;50.390;8.640;2023-03-13T04:09:30;97956.38;;;7.38;100.00
54389;BME280;40975;50.390;8.640;2023-03-13T04:11:56;97943.19;;;7.38;100.00
54389;BME280;40975;50.390;8.640;2023-03-13T04:14:21;97940.38;;;7.39;100.00
54389;BME280;40975;50.390;8.640;2023-03-13T04:16:46;97953.13;;;7.44;100.00
54389;BME280;40975;50.390;8.640;2023-03-13T04:19:13;97937.28;;;7.44;100.00
54389;BME280;40975;50.390;8.640;2023-03-13T04:21:40;97930.84;;;7.46;100.00
54389;BME280;40975;50.390;8.640;2023-03-13T04:24:10;97920.16;;;7.48;100.00
54389;BME280;40975;50.390;8.640;2023-03-13T04:26:37;97909.59;;;7.48;100.00
54389;BME280;40975;50.390;8.640;2023-03-13T04:29:03;97915.53;;;7.50;100.00
54389;BME280;40975;50.390;8.640;2023-03-13T04:31:43;97926.59;;;7.54;100.00
54389;BME280;40975;50.390;8.640;2023-03-13T04:34:21;97933.22;;;7.58;100.00
54389;BME280;40975;50.390;8.640;2023-03-13T04:37:05;97924.31;;;7.59;100.00
54389;BME280;40975;50.390;8.640;2023-03-13T04:39:49;97908.31;;;7.60;100.00
54389;BME280;40975;50.390;8.640;2023-03-13T04:42:36;97912.97;;;7.67;100.00
54389;BME280;40975;50.390;8.640;2023-03-13T04:45:18;97907.38;;;7.70;100.00
54389;BME280;40975;50.390;8.640;2023-03-13T04:48:13;97898.63;;;7.69;100.00
54389;BME280;40975;50.390;8.640;2023-03-13T04:50:57;97901.09;;;7.71;100.00
54389;BME280;40975;50.390;8.640;2023-03-13T04:53:41;97906.75;;;7.76;100.00
54389;BME280;40975;50.390;8.640;2023-03-13T04:56:27;97900.50;;;7.77;100.00
54389;BME280;40975;50.390;8.640;2023-03-13T04:59:09;97888.25;;;7.76;100.00
54389;BME280;40975;50.390;8.640;2023-03-13T05:01:51;97893.22;;;7.79;100.00
54389;BME280;40975;50.390;8.640;2023-03-13T05:04:41;97897.56;;;7.88;100.00
54389;BME280;40975;50.390;8.640;2023-03-13T05:07:22;97876.09;;;7.91;100.00
54389;BME280;40975;50.390;8.640;2023-03-13T05:10:03;97869.66;;;7.94;100.00
54389;BME280;40975;50.390;8.640;2023-03-13T05:12:44;97869.34;;;7.97;100.00
54389;BME280;40975;50.390;8.640;2023-03-13T05:15:30;97869.69;;;8.02;100.00
54389;BME280;40975;50.390;8.640;2023-03-13T05:18:10;97844.59;;;8.06;100.00
54389;BME280;40975;50.390;8.640;2023-03-13T05:20:57;97858.31;;;8.10;100.00
54389;BME280;40975;50.390;8.640;2023-03-13T05:23:37;97860.63;;;8.13;100.00
54389;BME280;40975;50.390;8.640;2023-03-13T05:26:29;97849.25;;;8.13;100.00
54389;BME280;40975;50.390;8.640;2023-03-13T05:29:08;97843.28;;;8.11;100.00
54389;BME280;40975;50.390;8.640;2023-03-13T05:31:52;97842.81;;;8.15;100.00
54389;BME280;40975;50.390;8.640;2023-03-13T05:34:31;97845.94;;;8.19;100.00
54389;BME280;40975;50.390;8.640;2023-03-13T05:37:31;97859.47;;;8.24;100.00
54389;BME280;40975;50.390;8.640;2023-03-13T05:40:29;97861.63;;;8.29;100.00
54389;BME280;40975;50.390;8.640;2023-03-13T05:43:10;97860.66;;;8.30;100.00
54389;BME280;40975;50.390;8.640;2023-03-13T05:46:04;97853.75;;;8.37;100.00
54389;BME280;40975;50.390;8.640;2023-03-13T05:48:41;97848.28;;;8.38;100.00
54389;BME280;40975;50.390;8.640;2023-03-13T05:51:21;97841.84;;;8.41;100.00
54389;BME280;40975;50.390;8.640;2023-03-13T05:54:02;97821.53;;;8.42;100.00
54389;BME280;40975;50.390;8.640;2023-03-13T05:56:48;97822.16;;;8.44;100.00
54389;BME280;40975;50.390;8.640;2023-03-13T05:59:32;97821.53;;;8.42;100.00
54389;BME280;40975;50.390;8.640;2023-03-13T06:02:16;97829.47;;;8.42;100.00
54389;BME280;40975;50.390;8.640;2023-03-13T06:04:45;97813.59;;;8.42;100.00
54389;BME280;40975;50.390;8.640;2023-03-13T06:07:11;97818.38;;;8.46;100.00
54389;BME280;40975;50.390;8.640;2023-03-13T06:09:36;97808.34;;;8.50;100.00
54389;BME280;40975;50.390;8.640;2023-03-13T06:12:02;97808.63;;;8.47;100.00
54389;BME280;40975;50.390;8.640;2023-03-13T06:14:28;97810.00;;;8.51;100.00
54389;BME280;40975;50.390;8.640;2023-03-13T06:17:14;97816.75;;;8.53;100.00
54389;BME280;40975;50.390;8.640;2023-03-13T06:19:40;97811.97;;;8.57;100.00
54389;BME280;40975;50.390;8.640;2023-03-13T06:22:05;97814.59;;;8.57;100.00
54389;BME280;40975;50.390;8.640;2023-03-13T06:24:30;97820.25;;;8.62;100.00
54389;BME280;40975;50.390;8.640;2023-03-13T06:26:56;97814.44;;;8.67;100.00
54389;BME280;40975;50.390;8.640;2023-03-13T06:29:22;97824.19;;;8.66;100.00
54389;BME280;40975;50.390;8.640;2023-03-13T06:31:49;97822.22;;;8.68;100.00
54389;BME280;40975;50.390;8.640;2023-03-13T06:34:15;97826.00;;;8.74;100.00
54389;BME280;40975;50.390;8.640;2023-03-13T06:36:40;97824.69;;;8.78;100.00
54389;BME280;40975;50.390;8.640;2023-03-13T06:39:05;97813.94;;;8.80;100.00
54389;BME280;40975;50.390;8.640;2023-03-13T06:41:32;97825.81;;;8.84;100.00
54389;BME280;40975;50.390;8.640;2023-03-13T06:43:57;97830.97;;;8.85;100.00
54389;BME280;40975;50.390;8.640;2023-03-13T06:46:23;97827.81;;;8.90;100.00
54389;BME280;40975;50.390;8.640;2023-03-13T06:48:49;97825.84;;;8.92;100.00
54389;BME280;40975;50.390;8.640;2023-03-13T06:51:17;97821.34;;;8.93;100.00
54389;BME280;40975;50.390;8.640;2023-03-13T06:53:42;97817.91;;;8.92;100.00
54389;BME280;40975;50.390;8.640;2023-03-13T06:56:08;97826.81;;;8.99;100.00
54389;BME280;40975;50.390;8.640;2023-03-13T06:58:34;97821.81;;;9.05;100.00
54389;BME280;40975;50.390;8.640;2023-03-13T07:01:07;97819.50;;;9.10;100.00
54389;BME280;40975;50.390;8.640;2023-03-13T07:03:33;97823.44;;;9.14;100.00
54389;BME280;40975;50.390;8.640;2023-03-13T07:05:59;97832.22;;;9.14;100.00
54389;BME280;40975;50.390;8.640;2023-03-13T07:08:24;97832.69;;;9.26;100.00
54389;BME280;40975;50.390;8.640;2023-03-13T07:10:50;97836.66;;;9.30;100.00
54389;BME280;40975;50.390;8.640;2023-03-13T07:13:17;97831.00;;;9.33;100.00
54389;BME280;40975;50.390;8.640;2023-03-13T07:15:45;97836.78;;;9.45;100.00
54389;BME280;40975;50.390;8.640;2023-03-13T07:18:10;97834.13;;;9.45;100.00
54389;BME280;40975;50.390;8.640;2023-03-13T07:20:36;97842.75;;;9.47;100.00
54389;BME280;40975;50.390;8.640;2023-03-13T07:23:01;97833.88;;;9.63;100.00
54389;BME280;40975;50.390;8.640;2023-03-13T07:25:26;97830.38;;;9.71;100.00
54389;BME280;40975;50.390;8.640;2023-03-13T07:27:52;97831.00;;;9.82;100.00
54389;BME280;40975;50.390;8.640;2023-03-13T07:30:18;97833.44;;;9.91;100.00
54389;BME280;40975;50.390;8.640;2023-03-13T07:32:43;97819.94;;;10.01;100.00
54389;BME280;40975;50.390;8.640;2023-03-13T07:35:09;97823.88;;;10.14;100.00
54389;BME280;40975;50.390;8.640;2023-03-13T07:37:34;97808.22;;;10.27;100.00
54389;BME280;40975;50.390;8.640;2023-03-13T07:39:59;97811.75;;;10.42;100.00
54389;BME280;40975;50.390;8.640;2023-03-13T07:42:24;97814.25;;;10.59;100.00
54389;BME280;40975;50.390;8.640;2023-03-13T07:44:52;97814.84;;;10.69;100.00
54389;BME280;40975;50.390;8.640;2023-03-13T07:47:17;97816.16;;;10.73;100.00
54389;BME280;40975;50.390;8.640;2023-03-13T07:49:43;97811.75;;;10.81;100.00
54389;BME280;40975;50.390;8.640;2023-03-13T07:52:10;97810.22;;;10.86;100.00
54389;BME280;40975;50.390;8.640;2023-03-13T07:54:35;97833.75;;;10.89;100.00
54389;BME280;40975;50.390;8.640;2023-03-13T07:57:01;97824.41;;;10.94;100.00
54389;BME280;40975;50.390;8.640;2023-03-13T07:59:27;97814.81;;;10.93;100.00
54389;BME280;40975;50.390;8.640;2023-03-13T08:01:52;97830.03;;;10.99;100.00
54389;BME280;40975;50.390;8.640;2023-03-13T08:04:18;97843.19;;;10.92;100.00
54389;BME280;40975;50.390;8.640;2023-03-13T08:06:43;97847.38;;;10.86;100.00
54389;BME280;40975;50.390;8.640;2023-03-13T08:09:08;97846.81;;;10.76;100.00
54389;BME280;40975;50.390;8.640;2023-03-13T08:11:34;97847.53;;;10.70;100.00
54389;BME280;40975;50.390;8.640;2023-03-13T08:13:59;97844.56;;;10.65;100.00
54389;BME280;40975;50.390;8.640;2023-03-13T08:16:33;97849.41;;;10.61;100.00
54389;BME280;40975;50.390;8.640;2023-03-13T08:18:59;97856.25;;;10.55;100.00
54389;BME280;40975;50.390;8.640;2023-03-13T08:21:29;97851.13;;;10.54;100.00
54389;BME280;40975;50.390;8.640;2023-03-13T08:23:57;97849.94;;;10.56;100.00
54389;BME280;40975;50.390;8.640;2023-03-13T08:26:25;97844.47;;;10.58;100.00
54389;BME280;40975;50.390;8.640;2023-03-13T08:28:56;97831.56;;;10.55;100.00
54389;BME280;40975;50.390;8.640;2023-03-13T08:31:24;97835.03;;;10.55;100.00
54389;BME280;40975;50.390;8.640;2023-03-13T08:33:50;97832.50;;;10.62;100.00
54389;BME280;40975;50.390;8.640;2023-03-13T08:36:25;97831.50;;;10.63;100.00
54389;BME280;40975;50.390;8.640;2023-03-13T08:38:52;97848.53;;;10.69;100.00
54389;BME280;40975;50.390;8.640;2023-03-13T08:41:23;97846.53;;;10.71;100.00
54389;BME280;40975;50.390;8.640;2023-03-13T08:43:50;97846.81;;;10.76;100.00
54389;BME280;40975;50.390;8.640;2023-03-13T08:46:16;97856.41;;;10.77;100.00
54389;BME280;40975;50.390;8.640;2023-03-13T08:48:41;97845.16;;;10.75;100.00
54389;BME280;40975;50.390;8.640;2023-03-13T08:51:12;97847.66;;;10.77;100.00
54389;BME280;40975;50.390;8.640;2023-03-13T08:53:39;97848.03;;;10.88;100.00
54389;BME280;40975;50.390;8.640;2023-03-13T08:56:08;97852.16;;;10.91;100.00
54389;BME280;40975;50.390;8.640;2023-03-13T08:58:34;97847.41;;;11.01;100.00
54389;BME280;40975;50.390;8.640;2023-03-13T09:01:07;97842.97;;;11.17;100.00
54389;BME280;40975;50.390;8.640;2023-03-13T09:03:33;97841.47;;;11.29;100.00
54389;BME280;40975;50.390;8.640;2023-03-13T09:05:59;97837.72;;;11.54;100.00
54389;BME280;40975;50.390;8.640;2023-03-13T09:08:26;97848.09;;;11.63;100.00
54389;BME280;40975;50.390;8.640;2023-03-13T09:11:02;97853.84;;;11.67;100.00
54389;BME280;40975;50.390;8.640;2023-03-13T09:13:30;97846.97;;;11.73;100.00
54389;BME280;40975;50.390;8.640;2023-03-13T09:16:00;97833.56;;;11.81;100.00
54389;BME280;40975;50.390;8.640;2023-03-13T09:18:27;97840.25;;;11.92;100.00
54389;BME280;40975;50.390;8.640;2023-03-13T09:20:53;97819.44;;;12.10;100.00
54389;BME280;40975;50.390;8.640;2023-03-13T09:23:19;97821.31;;;12.17;100.00
54389;BME280;40975;50.390;8.640;2023-03-13T09:25:44;97809.47;;;12.19;100.00
54389;BME280;40975;50.390;8.640;2023-03-13T09:28:10;97807.91;;;12.25;100.00
54389;BME280;40975;50.390;8.640;2023-03-13T09:30:35;97804.22;;;12.26;100.00
54389;BME280;40975;50.390;8.640;2023-03-13T09:33:01;97793.91;;;12.38;100.00
54389;BME280;40975;50.390;8.640;2023-03-13T09:35:26;97792.13;;;12.45;100.00
54389;BME280;40975;50.390;8.640;2023-03-13T09:37:51;97789.53;;;12.52;100.00
54389;BME280;40975;50.390;8.640;2023-03-13T09:40:20;97775.03;;;12.54;100.00
54389;BME280;40975;50.390;8.640;2023-03-13T09:42:52;97785.22;;;12.51;100.00
54389;BME280;40975;50.390;8.640;2023-03-13T09:45:37;97772.72;;;12.51;100.00
54389;BME280;40975;50.390;8.640;2023-03-13T09:48:16;97769.25;;;12.51;100.00
54389;BME280;40975;50.390;8.640;2023-03-13T09:50:58;97768.53;;;12.64;100.00
54389;BME280;40975;50.390;8.640;2023-03-13T09:53:49;97766.09;;;12.62;100.00
54389;BME280;40975;50.390;8.640;2023-03-13T09:56:19;97780.84;;;12.65;100.00
54389;BME280;40975;50.390;8.640;2023-03-13T09:58:55;97778.50;;;12.55;100.00
54389;BME280;40975;50.390;8.640;2023-03-13T10:01:27;97788.13;;;12.56;100.00
54389;BME280;40975;50.390;8.640;2023-03-13T10:03:59;97789.72;;;12.50;100.00
54389;BME280;40975;50.390;8.640;2023-03-13T10:06:29;97795.03;;;12.50;100.00
54389;BME280;40975;50.390;8.640;2023-03-13T10:08:57;97780.50;;;12.53;100.00
54389;BME280;40975;50.390;8.640;2023-03-13T10:11:33;97794.41;;;12.48;100.00
54389;BME280;40975;50.390;8.640;2023-03-13T10:14:05;97796.00;;;12.42;100.00
54389;BME280;40975;50.390;8.640;2023-03-13T10:16:43;97799.09;;;12.46;100.00
54389;BME280;40975;50.390;8.640;2023-03-13T10:19:15;97785.91;;;12.38;100.00
54389;BME280;40975;50.390;8.640;2023-03-13T10:21:43;97785.47;;;12.34;100.00
54389;BME280;40975;50.390;8.640;2023-03-13T10:26:41;97784.38;;;12.50;100.00
54389;BME280;40975;50.390;8.640;2023-03-13T10:29:28;97774.44;;;12.59;100.00
54389;BME280;40975;50.390;8.640;2023-03-13T10:32:03;97758.09;;;12.62;100.00
54389;BME280;40975;50.390;8.640;2023-03-13T10:34:58;97758.69;;;12.57;100.00
54389;BME280;40975;50.390;8.640;2023-03-13T10:37:40;97771.34;;;12.55;100.00
54389;BME280;40975;50.390;8.640;2023-03-13T10:42:44;97767.03;;;12.54;100.00
54389;BME280;40975;50.390;8.640;2023-03-13T10:45:15;97781.84;;;12.64;100.00
54389;BME280;40975;50.390;8.640;2023-03-13T10:47:41;97777.97;;;12.66;100.00
54389;BME280;40975;50.390;8.640;2023-03-13T10:50:17;97783.06;;;12.61;100.00
54389;BME280;40975;50.390;8.640;2023-03-13T10:52:47;97772.22;;;12.63;100.00
54389;BME280;40975;50.390;8.640;2023-03-13T10:55:18;97775.84;;;12.55;100.00
54389;BME280;40975;50.390;8.640;2023-03-13T10:57:58;97776.84;;;12.54;100.00
54389;BME280;40975;50.390;8.640;2023-03-13T11:00:33;97768.91;;;12.60;100.00
54389;BME280;40975;50.390;8.640;2023-03-13T11:03:01;97766.47;;;12.59;100.00
54389;BME280;40975;50.390;8.640;2023-03-13T11:05:36;97762.59;;;12.62;100.00
54389;BME280;40975;50.390;8.640;2023-03-13T11:08:20;97756.53;;;12.74;100.00
54389;BME280;40975;50.390;8.640;2023-03-13T11:10:54;97749.03;;;12.85;100.00
54389;BME280;40975;50.390;8.640;2023-03-13T11:13:34;97744.53;;;12.85;100.00
54389;BME280;40975;50.390;8.640;2023-03-13T11:16:08;97732.50;;;12.96;100.00
54389;BME280;40975;50.390;8.640;2023-03-13T11:21:23;97738.97;;;13.15;100.00
54389;BME280;40975;50.390;8.640;2023-03-13T11:24:06;97738.97;;;13.15;100.00
54389;BME280;40975;50.390;8.640;2023-03-13T11:26:37;97740.38;;;13.11;100.00
54389;BME280;40975;50.390;8.640;2023-03-13T11:29:19;97725.41;;;13.10;100.00
54389;BME280;40975;50.390;8.640;2023-03-13T11:31:56;97732.97;;;13.06;100.00
54389;BME280;40975;50.390;8.640;2023-03-13T11:34:31;97728.66;;;13.05;100.00
54389;BME280;40975;50.390;8.640;2023-03-13T11:37:14;97733.19;;;13.05;100.00
54389;BME280;40975;50.390;8.640;2023-03-13T11:42:24;97715.13;;;13.00;100.00
54389;BME280;40975;50.390;8.640;2023-03-13T11:48:04;97718.53;;;12.87;100.00
54389;BME280;40975;50.390;8.640;2023-03-13T11:50:36;97707.16;;;12.72;100.00
54389;BME280;40975;50.390;8.640;2023-03-13T11:55:50;97712.50;;;12.72;100.00
54389;BME280;40975;50.390;8.640;2023-03-13T12:03:35;97684.06;;;12.72;100.00
54389;BME280;40975;50.390;8.640;2023-03-13T12:06:06;97666.66;;;12.77;100.00
54389;BME280;40975;50.390;8.640;2023-03-13T12:08:40;97674.44;;;12.78;100.00
54389;BME280;40975;50.390;8.640;2023-03-13T12:11:26;97666.19;;;12.66;100.00
54389;BME280;40975;50.390;8.640;2023-03-13T12:14:03;97671.50;;;12.66;100.00
54389;BME280;40975;50.390;8.640;2023-03-13T12:19:14;97661.41;;;12.55;100.00
54389;BME280;40975;50.390;8.640;2023-03-13T12:21:49;97656.72;;;12.57;100.00
54389;BME280;40975;50.390;8.640;2023-03-13T12:24:35;97649.31;;;12.52;100.00
54389;BME280;40975;50.390;8.640;2023-03-13T12:27:22;97648.69;;;12.50;100.00
54389;BME280;40975;50.390;8.640;2023-03-13T12:29:55;97642.78;;;12.55;100.00
54389;BME280;40975;50.390;8.640;2023-03-13T12:32:36;97647.09;;;12.56;100.00
54389;BME280;40975;50.390;8.640;2023-03-13T12:35:22;97640.13;;;12.55;100.00
54389;BME280;40975;50.390;8.640;2023-03-13T12:38:01;97642.59;;;12.56;100.00
54389;BME280;40975;50.390;8.640;2023-03-13T12:40:50;97625.03;;;12.62;100.00
54389;BME280;40975;50.390;8.640;2023-03-13T12:43:32;97617.22;;;12.60;100.00
54389;BME280;40975;50.390;8.640;2023-03-13T12:48:41;97611.84;;;12.54;100.00
54389;BME280;40975;50.390;8.640;2023-03-13T12:51:37;97610.69;;;12.63;100.00
54389;BME280;40975;50.390;8.640;2023-03-13T12:57:05;97599.84;;;12.65;100.00
54389;BME280;40975;50.390;8.640;2023-03-13T12:59:37;97582.66;;;12.67;100.00
54389;BME280;40975;50.390;8.640;2023-03-13T13:02:31;97584.34;;;12.75;100.00
54389;BME280;40975;50.390;8.640;2023-03-13T13:04:59;97572.47;;;12.78;100.00
54389;BME280;40975;50.390;8.640;2023-03-13T13:07:36;97573.34;;;12.91;100.00
54389;BME280;40975;50.390;8.640;2023-03-13T13:12:34;97563.16;;;13.09;100.00
54389;BME280;40975;50.390;8.640;2023-03-13T13:20:27;97554.56;;;13.13;100.00
54389;BME280;40975;50.390;8.640;2023-03-13T13:22:55;97541.88;;;13.22;100.00
54389;BME280;40975;50.390;8.640;2023-03-13T13:25:30;97528.38;;;13.37;100.00
54389;BME280;40975;50.390;8.640;2023-03-13T13:28:10;97531.69;;;13.59;100.00
54389;BME280;40975;50.390;8.640;2023-03-13T13:30:36;97522.44;;;13.89;100.00
54389;BME280;40975;50.390;8.640;2023-03-13T13:35:47;97487.81;;;13.68;100.00
54389;BME280;40975;50.390;8.640;2023-03-13T13:38:32;97484.94;;;13.77;100.00
54389;BME280;40975;50.390;8.640;2023-03-13T13:43:44;97479.28;;;14.19;100.00
54389;BME280;40975;50.390;8.640;2023-03-13T13:46:28;97470.09;;;14.14;100.00
54389;BME280;40975;50.390;8.640;2023-03-13T13:51:38;97457.31;;;14.23;100.00
54389;BME280;40975;50.390;8.640;2023-03-13T13:54:33;97445.53;;;14.44;100.00
54389;BME280;40975;50.390;8.640;2023-03-13T13:57:26;97440.31;;;14.63;100.00
54389;BME280;40975;50.390;8.640;2023-03-13T14:00:00;97446.69;;;14.62;100.00
54389;BME280;40975;50.390;8.640;2023-03-13T14:02:35;97453.34;;;14.46;100.00
54389;BME280;40975;50.390;8.640;2023-03-13T14:05:24;97454.00;;;14.35;100.00
54389;BME280;40975;50.390;8.640;2023-03-13T14:07:56;97437.41;;;14.26;100.00